sensor_id;sensor_type;location;lat;lon;timestamp;temperature;humidity
6462;DHT22;3264;42.862;25.098;2023-02-28T00:01:44;6.90;99.90
6462;DHT22;3264;42.862;25.098;2023-02-28T00:04:13;6.90;99.90
6462;DHT22;3264;42.862;25.098;2023-02-28T00:06:42;6.90;99.90
6462;DHT22;3264;42.862;25.098;2023-02-28T00:09:12;7.00;99.90
6462;DHT22;3264;42.862;25.098;2023-02-28T00:11:42;6.90;99.90
6462;DHT22;3264;42.862;25.098;2023-02-28T00:14:11;6.70;99.90
6462;DHT22;3264;42.862;25.098;2023-02-28T00:16:40;6.80;99.90
6462;DHT22;3264;42.862;25.098;2023-02-28T00:19:09;6.80;99.90
6462;DHT22;3264;42.862;25.098;2023-02-28T00:21:40;6.70;99.90
6462;DHT22;3264;42.862;25.098;2023-02-28T00:24:10;6.70;99.90
6462;DHT22;3264;42.862;25.098;2023-02-28T00:26:39;6.80;99.90
6462;DHT22;3264;42.862;25.098;2023-02-28T00:29:10;6.80;99.90
6462;DHT22;3264;42.862;25.098;2023-02-28T00:31:40;6.80;99.90
6462;DHT22;3264;42.862;25.098;2023-02-28T00:34:09;6.80;99.90
6462;DHT22;3264;42.862;25.098;2023-02-28T00:36:38;6.80;99.90
6462;DHT22;3264;42.862;25.098;2023-02-28T00:39:08;6.80;99.90
6462;DHT22;3264;42.862;25.098;2023-02-28T00:41:37;6.80;99.90
6462;DHT22;3264;42.862;25.098;2023-02-28T00:44:08;6.70;99.90
6462;DHT22;3264;42.862;25.098;2023-02-28T00:46:37;6.80;99.90
6462;DHT22;3264;42.862;25.098;2023-02-28T00:49:09;6.80;99.90
6462;DHT22;3264;42.862;25.098;2023-02-28T00:51:38;6.80;99.90
6462;DHT22;3264;42.862;25.098;2023-02-28T00:54:07;6.80;99.90
6462;DHT22;3264;42.862;25.098;2023-02-28T00:56:36;6.80;99.90
6462;DHT22;3264;42.862;25.098;2023-02-28T00:59:06;6.70;99.90
6462;DHT22;3264;42.862;25.098;2023-02-28T01:01:36;6.50;99.90
6462;DHT22;3264;42.862;25.098;2023-02-28T01:04:05;6.60;99.90
6462;DHT22;3264;42.862;25.098;2023-02-28T01:06:34;6.60;99.90
6462;DHT22;3264;42.862;25.098;2023-02-28T01:09:04;6.70;99.90
6462;DHT22;3264;42.862;25.098;2023-02-28T01:11:34;6.60;99.90
6462;DHT22;3264;42.862;25.098;2023-02-28T01:14:06;6.60;99.90
6462;DHT22;3264;42.862;25.098;2023-02-28T01:16:36;6.70;99.90
6462;DHT22;3264;42.862;25.098;2023-02-28T01:19:06;6.70;99.90
6462;DHT22;3264;42.862;25.098;2023-02-28T01:21:35;6.70;99.90
6462;DHT22;3264;42.862;25.098;2023-02-28T01:24:05;6.60;99.90
6462;DHT22;3264;42.862;25.098;2023-02-28T01:26:34;6.60;99.90
6462;DHT22;3264;42.862;25.098;2023-02-28T01:29:03;6.60;99.90
6462;DHT22;3264;42.862;25.098;2023-02-28T01:31:33;6.50;99.90
6462;DHT22;3264;42.862;25.098;2023-02-28T01:34:09;6.60;99.90
6462;DHT22;3264;42.862;25.098;2023-02-28T01:36:39;6.70;99.90
6462;DHT22;3264;42.862;25.098;2023-02-28T01:39:08;6.80;99.90
6462;DHT22;3264;42.862;25.098;2023-02-28T01:41:37;6.90;99.90
6462;DHT22;3264;42.862;25.098;2023-02-28T01:46:53;6.90;99.90
6462;DHT22;3264;42.862;25.098;2023-02-28T01:49:23;6.90;99.90
6462;DHT22;3264;42.862;25.098;2023-02-28T01:51:54;6.90;99.90
6462;DHT22;3264;42.862;25.098;2023-02-28T01:54:27;6.90;99.90
6462;DHT22;3264;42.862;25.098;2023-02-28T01:57:00;6.90;99.90
6462;DHT22;3264;42.862;25.098;2023-02-28T01:59:33;6.90;99.90
6462;DHT22;3264;42.862;25.098;2023-02-28T02:02:09;6.80;99.90
6462;DHT22;3264;42.862;25.098;2023-02-28T02:04:44;6.70;99.90
6462;DHT22;3264;42.862;25.098;2023-02-28T02:07:14;6.70;99.90
6462;DHT22;3264;42.862;25.098;2023-02-28T02:09:42;6.70;99.90
6462;DHT22;3264;42.862;25.098;2023-02-28T02:12:21;6.70;99.90
6462;DHT22;3264;42.862;25.098;2023-02-28T02:15:03;6.70;99.90
6462;DHT22;3264;42.862;25.098;2023-02-28T02:17:37;6.80;99.90
6462;DHT22;3264;42.862;25.098;2023-02-28T02:20:35;6.80;99.90
6462;DHT22;3264;42.862;25.098;2023-02-28T02:23:33;6.80;99.90
6462;DHT22;3264;42.862;25.098;2023-02-28T02:29:35;6.70;99.90
6462;DHT22;3264;42.862;25.098;2023-02-28T02:32:47;6.70;99.90
6462;DHT22;3264;42.862;25.098;2023-02-28T02:35:21;6.60;99.90
6462;DHT22;3264;42.862;25.098;2023-02-28T02:37:56;6.70;99.90
6462;DHT22;3264;42.862;25.098;2023-02-28T02:40:29;6.70;99.90
6462;DHT22;3264;42.862;25.098;2023-02-28T02:43:05;6.60;99.90
6462;DHT22;3264;42.862;25.098;2023-02-28T02:45:39;6.60;99.90
6462;DHT22;3264;42.862;25.098;2023-02-28T02:48:14;6.70;99.90
6462;DHT22;3264;42.862;25.098;2023-02-28T02:50:46;6.70;99.90
6462;DHT22;3264;42.862;25.098;2023-02-28T02:53:18;6.70;99.90
6462;DHT22;3264;42.862;25.098;2023-02-28T02:55:51;6.70;99.90
6462;DHT22;3264;42.862;25.098;2023-02-28T02:58:24;6.70;99.90
6462;DHT22;3264;42.862;25.098;2023-02-28T03:00:54;6.80;99.90
6462;DHT22;3264;42.862;25.098;2023-02-28T03:03:25;6.80;99.90
6462;DHT22;3264;42.862;25.098;2023-02-28T03:06:00;6.80;99.90
6462;DHT22;3264;42.862;25.098;2023-02-28T03:08:33;6.80;99.90
6462;DHT22;3264;42.862;25.098;2023-02-28T03:11:03;6.80;99.90
6462;DHT22;3264;42.862;25.098;2023-02-28T03:14:01;6.80;99.90
6462;DHT22;3264;42.862;25.098;2023-02-28T03:16:35;6.90;99.90
6462;DHT22;3264;42.862;25.098;2023-02-28T03:19:28;6.90;99.90
6462;DHT22;3264;42.862;25.098;2023-02-28T03:22:11;6.80;99.90
6462;DHT22;3264;42.862;25.098;2023-02-28T03:24:47;6.80;99.90
6462;DHT22;3264;42.862;25.098;2023-02-28T03:27:23;6.80;99.90
6462;DHT22;3264;42.862;25.098;2023-02-28T03:29:58;6.70;99.90
6462;DHT22;3264;42.862;25.098;2023-02-28T03:32:33;6.70;99.90
6462;DHT22;3264;42.862;25.098;2023-02-28T03:35:09;6.70;99.90
6462;DHT22;3264;42.862;25.098;2023-02-28T03:37:42;6.70;99.90
6462;DHT22;3264;42.862;25.098;2023-02-28T03:40:15;6.80;99.90
6462;DHT22;3264;42.862;25.098;2023-02-28T03:42:47;6.80;99.90
6462;DHT22;3264;42.862;25.098;2023-02-28T03:45:18;6.80;99.90
6462;DHT22;3264;42.862;25.098;2023-02-28T03:47:53;6.90;99.90
6462;DHT22;3264;42.862;25.098;2023-02-28T03:50:24;6.90;99.90
6462;DHT22;3264;42.862;25.098;2023-02-28T03:52:58;6.70;99.90
6462;DHT22;3264;42.862;25.098;2023-02-28T03:55:36;6.70;99.90
6462;DHT22;3264;42.862;25.098;2023-02-28T03:58:12;6.70;99.90
6462;DHT22;3264;42.862;25.098;2023-02-28T04:00:47;6.70;99.90
6462;DHT22;3264;42.862;25.098;2023-02-28T04:03:17;6.70;99.90
6462;DHT22;3264;42.862;25.098;2023-02-28T04:05:50;6.60;99.90
6462;DHT22;3264;42.862;25.098;2023-02-28T04:08:22;6.60;99.90
6462;DHT22;3264;42.862;25.098;2023-02-28T04:10:55;6.70;99.90
6462;DHT22;3264;42.862;25.098;2023-02-28T04:13:26;6.50;99.90
6462;DHT22;3264;42.862;25.098;2023-02-28T04:15:55;6.50;99.90
6462;DHT22;3264;42.862;25.098;2023-02-28T04:18:24;6.50;99.90
6462;DHT22;3264;42.862;25.098;2023-02-28T04:20:53;6.50;99.90
6462;DHT22;3264;42.862;25.098;2023-02-28T04:23:23;6.50;99.90
6462;DHT22;3264;42.862;25.098;2023-02-28T04:25:55;6.50;99.90
6462;DHT22;3264;42.862;25.098;2023-02-28T04:28:25;6.60;99.90
6462;DHT22;3264;42.862;25.098;2023-02-28T04:30:58;6.60;99.90
6462;DHT22;3264;42.862;25.098;2023-02-28T04:33:27;6.50;99.90
6462;DHT22;3264;42.862;25.098;2023-02-28T04:35:59;6.50;99.90
6462;DHT22;3264;42.862;25.098;2023-02-28T04:38:31;6.40;99.90
6462;DHT22;3264;42.862;25.098;2023-02-28T04:41:00;6.40;99.90
6462;DHT22;3264;42.862;25.098;2023-02-28T04:43:31;6.50;99.90
6462;DHT22;3264;42.862;25.098;2023-02-28T04:46:05;6.50;99.90
6462;DHT22;3264;42.862;25.098;2023-02-28T04:48:36;6.50;99.90
6462;DHT22;3264;42.862;25.098;2023-02-28T04:51:05;6.50;99.90
6462;DHT22;3264;42.862;25.098;2023-02-28T04:53:37;6.60;99.90
6462;DHT22;3264;42.862;25.098;2023-02-28T04:56:06;6.70;99.90
6462;DHT22;3264;42.862;25.098;2023-02-28T04:58:35;6.60;99.90
6462;DHT22;3264;42.862;25.098;2023-02-28T05:01:14;6.60;99.90
6462;DHT22;3264;42.862;25.098;2023-02-28T05:03:44;6.70;99.90
6462;DHT22;3264;42.862;25.098;2023-02-28T05:06:13;6.70;99.90
6462;DHT22;3264;42.862;25.098;2023-02-28T05:08:43;6.70;99.90
6462;DHT22;3264;42.862;25.098;2023-02-28T05:11:18;6.70;99.90
6462;DHT22;3264;42.862;25.098;2023-02-28T05:13:48;6.60;99.90
6462;DHT22;3264;42.862;25.098;2023-02-28T05:16:16;6.50;99.90
6462;DHT22;3264;42.862;25.098;2023-02-28T05:18:46;6.50;99.90
6462;DHT22;3264;42.862;25.098;2023-02-28T05:21:25;6.50;99.90
6462;DHT22;3264;42.862;25.098;2023-02-28T05:23:57;6.60;99.90
6462;DHT22;3264;42.862;25.098;2023-02-28T05:26:25;6.60;99.90
6462;DHT22;3264;42.862;25.098;2023-02-28T05:28:55;6.60;99.90
6462;DHT22;3264;42.862;25.098;2023-02-28T05:31:23;6.60;99.90
6462;DHT22;3264;42.862;25.098;2023-02-28T05:33:52;6.60;99.90
6462;DHT22;3264;42.862;25.098;2023-02-28T05:36:20;6.50;99.90
6462;DHT22;3264;42.862;25.098;2023-02-28T05:38:50;6.60;99.90
6462;DHT22;3264;42.862;25.098;2023-02-28T05:41:20;6.60;99.90
6462;DHT22;3264;42.862;25.098;2023-02-28T05:43:49;6.40;99.90
6462;DHT22;3264;42.862;25.098;2023-02-28T05:46:17;6.60;99.90
6462;DHT22;3264;42.862;25.098;2023-02-28T05:48:47;6.60;99.90
6462;DHT22;3264;42.862;25.098;2023-02-28T05:51:17;6.50;99.90
6462;DHT22;3264;42.862;25.098;2023-02-28T05:53:46;6.60;99.90
6462;DHT22;3264;42.862;25.098;2023-02-28T05:56:16;6.80;99.90
6462;DHT22;3264;42.862;25.098;2023-02-28T05:58:46;6.90;99.90
6462;DHT22;3264;42.862;25.098;2023-02-28T06:01:23;6.80;99.90
6462;DHT22;3264;42.862;25.098;2023-02-28T06:03:52;6.90;99.90
6462;DHT22;3264;42.862;25.098;2023-02-28T06:06:20;7.00;99.90
6462;DHT22;3264;42.862;25.098;2023-02-28T06:08:49;7.00;99.90
6462;DHT22;3264;42.862;25.098;2023-02-28T06:11:18;7.00;99.90
6462;DHT22;3264;42.862;25.098;2023-02-28T06:13:49;7.00;99.90
6462;DHT22;3264;42.862;25.098;2023-02-28T06:16:19;6.70;99.90
6462;DHT22;3264;42.862;25.098;2023-02-28T06:18:48;6.70;99.90
6462;DHT22;3264;42.862;25.098;2023-02-28T06:21:17;7.00;99.90
6462;DHT22;3264;42.862;25.098;2023-02-28T06:23:46;7.00;99.90
6462;DHT22;3264;42.862;25.098;2023-02-28T06:26:15;7.00;99.90
6462;DHT22;3264;42.862;25.098;2023-02-28T06:28:45;7.10;99.90
6462;DHT22;3264;42.862;25.098;2023-02-28T06:31:17;7.10;99.90
6462;DHT22;3264;42.862;25.098;2023-02-28T06:33:47;7.00;99.90
6462;DHT22;3264;42.862;25.098;2023-02-28T06:36:16;7.00;99.90
6462;DHT22;3264;42.862;25.098;2023-02-28T06:38:46;7.00;99.90
6462;DHT22;3264;42.862;25.098;2023-02-28T06:41:18;6.90;99.90
6462;DHT22;3264;42.862;25.098;2023-02-28T06:43:47;6.80;99.90
6462;DHT22;3264;42.862;25.098;2023-02-28T06:46:18;6.70;99.90
6462;DHT22;3264;42.862;25.098;2023-02-28T06:48:48;6.80;99.90
6462;DHT22;3264;42.862;25.098;2023-02-28T06:51:19;6.80;99.90
6462;DHT22;3264;42.862;25.098;2023-02-28T06:53:49;6.80;99.90
6462;DHT22;3264;42.862;25.098;2023-02-28T06:56:19;6.70;99.90
6462;DHT22;3264;42.862;25.098;2023-02-28T06:58:50;6.60;99.90
6462;DHT22;3264;42.862;25.098;2023-02-28T07:01:21;6.70;99.90
6462;DHT22;3264;42.862;25.098;2023-02-28T07:03:51;6.70;99.90
6462;DHT22;3264;42.862;25.098;2023-02-28T07:06:21;6.80;99.90
6462;DHT22;3264;42.862;25.098;2023-02-28T07:08:51;6.80;99.90
6462;DHT22;3264;42.862;25.098;2023-02-28T07:11:22;6.80;99.90
6462;DHT22;3264;42.862;25.098;2023-02-28T07:13:53;6.80;99.90
6462;DHT22;3264;42.862;25.098;2023-02-28T07:16:24;6.70;99.90
6462;DHT22;3264;42.862;25.098;2023-02-28T07:18:54;6.70;99.90
6462;DHT22;3264;42.862;25.098;2023-02-28T07:21:23;6.90;99.90
6462;DHT22;3264;42.862;25.098;2023-02-28T07:23:53;7.10;99.90
6462;DHT22;3264;42.862;25.098;2023-02-28T07:26:22;7.30;99.90
6462;DHT22;3264;42.862;25.098;2023-02-28T07:28:51;7.30;99.90
6462;DHT22;3264;42.862;25.098;2023-02-28T07:31:20;7.40;99.90
6462;DHT22;3264;42.862;25.098;2023-02-28T07:33:51;7.50;99.90
6462;DHT22;3264;42.862;25.098;2023-02-28T07:36:21;7.40;99.90
6462;DHT22;3264;42.862;25.098;2023-02-28T07:38:50;7.50;99.90
6462;DHT22;3264;42.862;25.098;2023-02-28T07:41:20;7.30;99.90
6462;DHT22;3264;42.862;25.098;2023-02-28T07:43:53;7.40;99.90
6462;DHT22;3264;42.862;25.098;2023-02-28T07:46:23;7.50;99.90
6462;DHT22;3264;42.862;25.098;2023-02-28T07:48:53;7.60;99.90
6462;DHT22;3264;42.862;25.098;2023-02-28T07:51:26;7.40;99.90
6462;DHT22;3264;42.862;25.098;2023-02-28T07:53:56;7.40;99.90
6462;DHT22;3264;42.862;25.098;2023-02-28T07:56:25;7.40;99.90
6462;DHT22;3264;42.862;25.098;2023-02-28T07:58:54;7.40;99.90
6462;DHT22;3264;42.862;25.098;2023-02-28T08:01:23;7.30;99.90
6462;DHT22;3264;42.862;25.098;2023-02-28T08:03:53;7.30;99.90
6462;DHT22;3264;42.862;25.098;2023-02-28T08:06:25;7.30;99.90
6462;DHT22;3264;42.862;25.098;2023-02-28T08:08:54;7.20;99.90
6462;DHT22;3264;42.862;25.098;2023-02-28T08:11:24;7.20;99.90
6462;DHT22;3264;42.862;25.098;2023-02-28T08:13:54;7.10;99.90
6462;DHT22;3264;42.862;25.098;2023-02-28T08:16:24;7.10;99.90
6462;DHT22;3264;42.862;25.098;2023-02-28T08:18:54;7.20;99.90
6462;DHT22;3264;42.862;25.098;2023-02-28T08:21:24;7.00;99.90
6462;DHT22;3264;42.862;25.098;2023-02-28T08:23:53;7.00;99.90
6462;DHT22;3264;42.862;25.098;2023-02-28T08:26:22;7.00;99.90
6462;DHT22;3264;42.862;25.098;2023-02-28T08:28:51;6.90;99.90
6462;DHT22;3264;42.862;25.098;2023-02-28T08:31:21;7.00;99.90
6462;DHT22;3264;42.862;25.098;2023-02-28T08:33:50;7.00;99.90
6462;DHT22;3264;42.862;25.098;2023-02-28T08:36:21;7.00;99.90
6462;DHT22;3264;42.862;25.098;2023-02-28T08:38:50;6.90;99.90
6462;DHT22;3264;42.862;25.098;2023-02-28T08:41:19;6.90;99.90
6462;DHT22;3264;42.862;25.098;2023-02-28T08:43:48;7.00;99.90
6462;DHT22;3264;42.862;25.098;2023-02-28T08:46:17;6.90;99.90
6462;DHT22;3264;42.862;25.098;2023-02-28T08:48:46;7.10;99.90
6462;DHT22;3264;42.862;25.098;2023-02-28T08:51:16;7.20;99.90
6462;DHT22;3264;42.862;25.098;2023-02-28T08:53:50;7.30;99.90
6462;DHT22;3264;42.862;25.098;2023-02-28T08:56:20;7.20;99.90
6462;DHT22;3264;42.862;25.098;2023-02-28T08:58:50;7.10;99.90
6462;DHT22;3264;42.862;25.098;2023-02-28T09:01:23;7.10;99.90
6462;DHT22;3264;42.862;25.098;2023-02-28T09:03:55;7.20;99.90
6462;DHT22;3264;42.862;25.098;2023-02-28T09:06:26;7.40;99.90
6462;DHT22;3264;42.862;25.098;2023-02-28T09:08:58;7.40;99.90
6462;DHT22;3264;42.862;25.098;2023-02-28T09:11:29;7.30;99.90
6462;DHT22;3264;42.862;25.098;2023-02-28T09:13:58;7.30;99.90
6462;DHT22;3264;42.862;25.098;2023-02-28T09:16:27;7.50;99.90
6462;DHT22;3264;42.862;25.098;2023-02-28T09:18:57;7.30;99.90
6462;DHT22;3264;42.862;25.098;2023-02-28T09:21:26;7.40;99.90
6462;DHT22;3264;42.862;25.098;2023-02-28T09:23:56;7.50;99.90
6462;DHT22;3264;42.862;25.098;2023-02-28T09:26:27;7.50;99.90
6462;DHT22;3264;42.862;25.098;2023-02-28T09:28:56;7.40;99.90
6462;DHT22;3264;42.862;25.098;2023-02-28T09:31:27;7.50;99.90
6462;DHT22;3264;42.862;25.098;2023-02-28T09:33:58;7.60;99.90
6462;DHT22;3264;42.862;25.098;2023-02-28T09:36:27;7.70;99.90
6462;DHT22;3264;42.862;25.098;2023-02-28T09:38:58;7.70;99.90
6462;DHT22;3264;42.862;25.098;2023-02-28T09:41:36;7.80;99.90
6462;DHT22;3264;42.862;25.098;2023-02-28T09:44:20;7.60;99.90
6462;DHT22;3264;42.862;25.098;2023-02-28T09:46:53;7.60;99.90
6462;DHT22;3264;42.862;25.098;2023-02-28T09:49:24;7.60;99.90
6462;DHT22;3264;42.862;25.098;2023-02-28T09:51:58;7.80;99.90
6462;DHT22;3264;42.862;25.098;2023-02-28T09:54:30;7.70;99.90
6462;DHT22;3264;42.862;25.098;2023-02-28T09:57:00;7.30;99.90
6462;DHT22;3264;42.862;25.098;2023-02-28T09:59:38;7.30;99.90
6462;DHT22;3264;42.862;25.098;2023-02-28T10:02:17;7.20;99.90
6462;DHT22;3264;42.862;25.098;2023-02-28T10:04:51;7.20;99.90
6462;DHT22;3264;42.862;25.098;2023-02-28T10:07:45;7.30;99.90
6462;DHT22;3264;42.862;25.098;2023-02-28T10:10:22;7.20;99.90
6462;DHT22;3264;42.862;25.098;2023-02-28T10:12:55;7.20;99.90
6462;DHT22;3264;42.862;25.098;2023-02-28T10:15:29;7.20;99.90
6462;DHT22;3264;42.862;25.098;2023-02-28T10:18:01;7.20;99.90
6462;DHT22;3264;42.862;25.098;2023-02-28T10:20:34;7.20;99.90
6462;DHT22;3264;42.862;25.098;2023-02-28T10:23:12;7.30;99.90
6462;DHT22;3264;42.862;25.098;2023-02-28T10:25:46;7.30;99.90
6462;DHT22;3264;42.862;25.098;2023-02-28T10:28:17;7.20;99.90
6462;DHT22;3264;42.862;25.098;2023-02-28T10:30:48;7.30;99.90
6462;DHT22;3264;42.862;25.098;2023-02-28T10:33:24;7.40;99.90
6462;DHT22;3264;42.862;25.098;2023-02-28T10:35:54;7.30;99.90
6462;DHT22;3264;42.862;25.098;2023-02-28T10:38:26;7.30;99.90
6462;DHT22;3264;42.862;25.098;2023-02-28T10:41:11;7.30;99.90
6462;DHT22;3264;42.862;25.098;2023-02-28T10:43:43;7.50;99.90
6462;DHT22;3264;42.862;25.098;2023-02-28T10:46:16;7.50;99.90
6462;DHT22;3264;42.862;25.098;2023-02-28T10:49:06;7.60;99.90
6462;DHT22;3264;42.862;25.098;2023-02-28T10:51:39;7.70;99.90
6462;DHT22;3264;42.862;25.098;2023-02-28T10:54:18;7.60;99.90
6462;DHT22;3264;42.862;25.098;2023-02-28T10:57:06;7.60;99.90
6462;DHT22;3264;42.862;25.098;2023-02-28T10:59:36;7.40;99.90
6462;DHT22;3264;42.862;25.098;2023-02-28T11:02:30;7.30;99.90
6462;DHT22;3264;42.862;25.098;2023-02-28T11:05:00;7.30;99.90
6462;DHT22;3264;42.862;25.098;2023-02-28T11:07:28;7.20;99.90
6462;DHT22;3264;42.862;25.098;2023-02-28T11:09:58;7.30;99.90
6462;DHT22;3264;42.862;25.098;2023-02-28T11:12:36;7.10;99.90
6462;DHT22;3264;42.862;25.098;2023-02-28T11:15:22;7.20;99.90
6462;DHT22;3264;42.862;25.098;2023-02-28T11:17:55;7.30;99.90
6462;DHT22;3264;42.862;25.098;2023-02-28T11:20:27;7.40;99.90
6462;DHT22;3264;42.862;25.098;2023-02-28T11:22:58;7.30;99.90
6462;DHT22;3264;42.862;25.098;2023-02-28T11:25:31;7.30;99.90
6462;DHT22;3264;42.862;25.098;2023-02-28T11:28:03;7.30;99.90
6462;DHT22;3264;42.862;25.098;2023-02-28T11:30:36;7.20;99.90
6462;DHT22;3264;42.862;25.098;2023-02-28T11:33:24;7.20;99.90
6462;DHT22;3264;42.862;25.098;2023-02-28T11:35:58;7.20;99.90
6462;DHT22;3264;42.862;25.098;2023-02-28T11:38:29;7.20;99.90
6462;DHT22;3264;42.862;25.098;2023-02-28T11:41:12;7.10;99.90
6462;DHT22;3264;42.862;25.098;2023-02-28T11:43:57;7.10;99.90
6462;DHT22;3264;42.862;25.098;2023-02-28T11:46:34;7.20;99.90
6462;DHT22;3264;42.862;25.098;2023-02-28T11:49:15;7.10;99.90
6462;DHT22;3264;42.862;25.098;2023-02-28T11:51:52;7.20;99.90
6462;DHT22;3264;42.862;25.098;2023-02-28T11:54:38;7.00;99.90
6462;DHT22;3264;42.862;25.098;2023-02-28T11:57:19;7.00;99.90
6462;DHT22;3264;42.862;25.098;2023-02-28T11:59:59;7.20;99.90
6462;DHT22;3264;42.862;25.098;2023-02-28T12:02:48;7.20;99.90
6462;DHT22;3264;42.862;25.098;2023-02-28T12:05:26;7.10;99.90
6462;DHT22;3264;42.862;25.098;2023-02-28T12:08:05;7.30;99.90
6462;DHT22;3264;42.862;25.098;2023-02-28T12:10:42;7.30;99.90
6462;DHT22;3264;42.862;25.098;2023-02-28T12:13:19;7.40;99.90
6462;DHT22;3264;42.862;25.098;2023-02-28T12:16:13;7.50;99.90
6462;DHT22;3264;42.862;25.098;2023-02-28T12:18:51;7.70;99.90
6462;DHT22;3264;42.862;25.098;2023-02-28T12:21:30;7.70;99.90
6462;DHT22;3264;42.862;25.098;2023-02-28T12:26:53;7.50;99.90
6462;DHT22;3264;42.862;25.098;2023-02-28T12:29:26;7.40;99.90
6462;DHT22;3264;42.862;25.098;2023-02-28T12:32:03;7.40;99.90
6462;DHT22;3264;42.862;25.098;2023-02-28T12:34:37;7.20;99.90
6462;DHT22;3264;42.862;25.098;2023-02-28T12:37:12;7.30;99.90
6462;DHT22;3264;42.862;25.098;2023-02-28T12:39:46;7.30;99.90
6462;DHT22;3264;42.862;25.098;2023-02-28T12:42:24;7.20;99.90
6462;DHT22;3264;42.862;25.098;2023-02-28T12:44:58;7.20;99.90
6462;DHT22;3264;42.862;25.098;2023-02-28T12:47:29;7.20;99.90
6462;DHT22;3264;42.862;25.098;2023-02-28T12:50:03;7.20;99.90
6462;DHT22;3264;42.862;25.098;2023-02-28T12:52:37;7.30;99.90
6462;DHT22;3264;42.862;25.098;2023-02-28T12:55:13;7.20;99.90
6462;DHT22;3264;42.862;25.098;2023-02-28T12:57:50;7.10;99.90
6462;DHT22;3264;42.862;25.098;2023-02-28T13:00:24;7.20;99.90
6462;DHT22;3264;42.862;25.098;2023-02-28T13:09:10;7.10;99.90
6462;DHT22;3264;42.862;25.098;2023-02-28T13:11:43;7.10;99.90
6462;DHT22;3264;42.862;25.098;2023-02-28T13:14:35;7.00;99.90
6462;DHT22;3264;42.862;25.098;2023-02-28T13:17:11;7.00;99.90
6462;DHT22;3264;42.862;25.098;2023-02-28T13:19:45;6.90;99.90
6462;DHT22;3264;42.862;25.098;2023-02-28T13:22:21;6.90;99.90
6462;DHT22;3264;42.862;25.098;2023-02-28T13:28:12;7.00;99.90
6462;DHT22;3264;42.862;25.098;2023-02-28T13:31:04;7.00;99.90
6462;DHT22;3264;42.862;25.098;2023-02-28T13:33:35;7.00;99.90
6462;DHT22;3264;42.862;25.098;2023-02-28T13:36:25;6.90;99.90
6462;DHT22;3264;42.862;25.098;2023-02-28T13:38:55;6.90;99.90
6462;DHT22;3264;42.862;25.098;2023-02-28T13:41:46;6.90;99.90
6462;DHT22;3264;42.862;25.098;2023-02-28T13:44:18;7.00;99.90
6462;DHT22;3264;42.862;25.098;2023-02-28T13:47:22;6.90;99.90
6462;DHT22;3264;42.862;25.098;2023-02-28T13:49:53;6.90;99.90
6462;DHT22;3264;42.862;25.098;2023-02-28T13:52:24;6.90;99.90
6462;DHT22;3264;42.862;25.098;2023-02-28T13:55:13;6.90;99.90
6462;DHT22;3264;42.862;25.098;2023-02-28T13:58:08;6.90;99.90
6462;DHT22;3264;42.862;25.098;2023-02-28T14:00:55;6.80;99.90
6462;DHT22;3264;42.862;25.098;2023-02-28T14:03:56;6.90;99.90
6462;DHT22;3264;42.862;25.098;2023-02-28T14:06:28;6.80;99.90
6462;DHT22;3264;42.862;25.098;2023-02-28T14:09:02;6.80;99.90
6462;DHT22;3264;42.862;25.098;2023-02-28T14:11:36;6.90;99.90
6462;DHT22;3264;42.862;25.098;2023-02-28T14:14:06;6.90;99.90
6462;DHT22;3264;42.862;25.098;2023-02-28T14:16:43;6.80;99.90
6462;DHT22;3264;42.862;25.098;2023-02-28T14:19:15;6.80;99.90
6462;DHT22;3264;42.862;25.098;2023-02-28T14:21:59;6.70;99.90
6462;DHT22;3264;42.862;25.098;2023-02-28T14:27:45;6.70;99.90
6462;DHT22;3264;42.862;25.098;2023-02-28T14:30:43;6.80;99.90
6462;DHT22;3264;42.862;25.098;2023-02-28T14:33:27;6.60;99.90
6462;DHT22;3264;42.862;25.098;2023-02-28T14:36:08;6.70;99.90
6462;DHT22;3264;42.862;25.098;2023-02-28T14:38:43;6.70;99.90
6462;DHT22;3264;42.862;25.098;2023-02-28T14:41:21;6.70;99.90
6462;DHT22;3264;42.862;25.098;2023-02-28T14:43:56;6.70;99.90
6462;DHT22;3264;42.862;25.098;2023-02-28T14:46:30;6.60;99.90
6462;DHT22;3264;42.862;25.098;2023-02-28T14:49:04;6.50;99.90
6462;DHT22;3264;42.862;25.098;2023-02-28T14:51:33;6.60;99.90
6462;DHT22;3264;42.862;25.098;2023-02-28T14:54:04;6.60;99.90
6462;DHT22;3264;42.862;25.098;2023-02-28T14:56:37;6.50;99.90
6462;DHT22;3264;42.862;25.098;2023-02-28T14:59:24;6.60;99.90
6462;DHT22;3264;42.862;25.098;2023-02-28T15:02:19;6.50;99.90
6462;DHT22;3264;42.862;25.098;2023-02-28T15:04:57;6.50;99.90
6462;DHT22;3264;42.862;25.098;2023-02-28T15:07:27;6.20;99.90
6462;DHT22;3264;42.862;25.098;2023-02-28T15:10:11;6.30;99.90
6462;DHT22;3264;42.862;25.098;2023-02-28T15:12:41;6.20;99.90
6462;DHT22;3264;42.862;25.098;2023-02-28T15:15:17;6.30;99.90
6462;DHT22;3264;42.862;25.098;2023-02-28T15:17:52;6.30;99.90
6462;DHT22;3264;42.862;25.098;2023-02-28T15:20:21;6.20;99.90
6462;DHT22;3264;42.862;25.098;2023-02-28T15:22:52;6.20;99.90
6462;DHT22;3264;42.862;25.098;2023-02-28T15:25:22;6.00;99.90
6462;DHT22;3264;42.862;25.098;2023-02-28T15:27:53;6.00;99.90
6462;DHT22;3264;42.862;25.098;2023-02-28T15:30:27;6.10;99.90
6462;DHT22;3264;42.862;25.098;2023-02-28T15:33:07;6.20;99.90
6462;DHT22;3264;42.862;25.098;2023-02-28T15:35:47;6.20;99.90
6462;DHT22;3264;42.862;25.098;2023-02-28T15:38:21;6.20;99.90
6462;DHT22;3264;42.862;25.098;2023-02-28T15:40:53;6.20;99.90
6462;DHT22;3264;42.862;25.098;2023-02-28T15:43:26;6.30;99.90
6462;DHT22;3264;42.862;25.098;2023-02-28T15:46:00;6.30;99.90
6462;DHT22;3264;42.862;25.098;2023-02-28T15:48:30;6.10;99.90
6462;DHT22;3264;42.862;25.098;2023-02-28T15:51:05;6.00;99.90
6462;DHT22;3264;42.862;25.098;2023-02-28T15:53:37;6.10;99.90
6462;DHT22;3264;42.862;25.098;2023-02-28T15:56:19;6.00;99.90
6462;DHT22;3264;42.862;25.098;2023-02-28T15:58:49;6.10;99.90
6462;DHT22;3264;42.862;25.098;2023-02-28T16:01:25;6.10;99.90
6462;DHT22;3264;42.862;25.098;2023-02-28T16:03:59;6.10;99.90
6462;DHT22;3264;42.862;25.098;2023-02-28T16:06:37;6.00;99.90
6462;DHT22;3264;42.862;25.098;2023-02-28T16:09:10;6.00;99.90
6462;DHT22;3264;42.862;25.098;2023-02-28T16:11:43;6.00;99.90
6462;DHT22;3264;42.862;25.098;2023-02-28T16:14:18;5.90;99.90
6462;DHT22;3264;42.862;25.098;2023-02-28T16:16:50;5.70;99.90
6462;DHT22;3264;42.862;25.098;2023-02-28T16:19:21;5.70;99.90
6462;DHT22;3264;42.862;25.098;2023-02-28T16:21:51;5.70;99.90
6462;DHT22;3264;42.862;25.098;2023-02-28T16:24:20;5.70;99.90
6462;DHT22;3264;42.862;25.098;2023-02-28T16:26:53;5.70;99.90
6462;DHT22;3264;42.862;25.098;2023-02-28T16:29:25;5.70;99.90
6462;DHT22;3264;42.862;25.098;2023-02-28T16:31:57;5.80;99.90
6462;DHT22;3264;42.862;25.098;2023-02-28T16:34:26;5.80;99.90
6462;DHT22;3264;42.862;25.098;2023-02-28T16:36:55;5.70;99.90
6462;DHT22;3264;42.862;25.098;2023-02-28T16:39:24;5.70;99.90
6462;DHT22;3264;42.862;25.098;2023-02-28T16:41:54;5.80;99.90
6462;DHT22;3264;42.862;25.098;2023-02-28T16:44:27;5.80;99.90
6462;DHT22;3264;42.862;25.098;2023-02-28T16:47:00;5.70;99.90
6462;DHT22;3264;42.862;25.098;2023-02-28T16:49:29;5.80;99.90
6462;DHT22;3264;42.862;25.098;2023-02-28T16:51:58;5.70;99.90
6462;DHT22;3264;42.862;25.098;2023-02-28T16:54:28;5.80;99.90
6462;DHT22;3264;42.862;25.098;2023-02-28T16:56:57;5.70;99.90
6462;DHT22;3264;42.862;25.098;2023-02-28T16:59:27;5.70;99.90
6462;DHT22;3264;42.862;25.098;2023-02-28T17:01:58;5.70;99.90
6462;DHT22;3264;42.862;25.098;2023-02-28T17:04:28;5.70;99.90